Protection Island, Washington
Current Conditions -  °F | °C
As of 6:56 AM on Thursday 23 Oct 2014 (Local Time) from KNUW Reporting Station
Light Rain Light Rain  
Wind Chill: 56°   Ceiling: 8000
Heat Index: 56°   Visibility: 10mi
Dew Point: 50°   Wind: 16mph
Humidity: 80%   Direction: 150°SSE
Pressure: 29.68"   Gusts: 24mph
Location:  48.026°N, 122.859°W
Report Text: KNUW 231356Z 15014G21KT 10SM -RA SCT019 SCT060 OVC080 13/10 A2968 RMK AO2 RAB38 SLP055 P0000 T01330100
Loading
Personal Weather Stations






























Interactive Weather Map
Tropical Storm Tracking
New forecast layout! Learn more

10-Day Weather Forecast

Advertisements
Track Severe Weather on mobile